Aeroporto :
LOGIN :

Iscrizione | Disclaimer

   EN    FR    IT 

 










Sommario :    VFR   VFR Marginale   IFR   IFR Intensivo   IFR Molto Intensivo
Visibilità : 
Base nubi : 
>= 8 km
>= 3000ft
5 / 8 km
1000 / 3000 ft
1500m / 5 km
500 / 1000 ft
800 / 1500m
200 / 500 ft
< 800m
< 200 ft
Simboli :   Temporali  Nebbia  Neve Forte  Precipitazioni Forti  Vento > 20 kt
SIGMETs :   Varie  Temporali  Ghiacco  Turbolenza  Onda orograficha  Ceneri Vulcaniche







- Altitudine del aeroporto : 20 ft
- Codice IATA : OBN
- Carte del aeroporto


EGEO - Oban

ULTIMO METAR :
  • 200920Z 18016KT 9999 FEW018 SCT025 BKN038 10/08 Q1004

METARs OBSOLETI :
  • 200850Z 18016KT 9000 FEW018 SCT025 BKN038 10/09 Q1004
  • 200820Z 19014KT 9000 FEW018 SCT025 BKN038 10/09 Q1004

TAF TAF EGEO
Valido dal 20 a 09 ore il 20 a 17 ore UTC


200803Z 2009/2017 19015KT 9999 SCT020 BKN040
TEMPO 2009/2017 20020G30KT 8000 -RA BKN012
PROB40
TEMPO 2009/2015 BKN008
Nessun NOTAM noto per questo aeroporto.
1 SIGMET conosciuto per la FIR Scottish (EGPX) :
 
Forte onda orograficha
EGPX SIGMET 02 VALID 200930/201330 EGRR
EGPX SCOTTISH FIR SEV MTW FCST WI N5500 W00530 - N5355 W00530 - N5425 W00810 - N5507 W00713 - N5520 W00655 - N5838 W00648 - N5946 W00244 - N5847 W00016 - N5500 E00006 - N5500 W00530 FL030/250 STNR NC=



MetMap, La meteo Aeronautica in un colpo d'occhio ! - Copyright ORBIFLY Dicembre 2007 - Disclaimer

ORBIFLY MET'MAP TEAM :

Programmazione e sviluppo : Alexandra Zaïnal
Concezione e sviluppo : Baudouin d'Aumeries
Co-Programmazione e sviluppo : Marc-Olivier Méhu
Supporto tecnico e logistico : Manuel Goepfert
Aiuto per la traduzione : Arnaldo La Scala

Contatto : metmap@orbifly.com




FONTI E CREDITI :

   NOAA